createdAt,value
2018-09-29T00:00:18.412Z,3.70
2018-09-29T00:02:47.308Z,4.27
2018-09-29T00:05:16.222Z,3.37
2018-09-29T00:07:45.154Z,4.00
2018-09-29T00:10:14.102Z,4.20
2018-09-29T00:12:43.028Z,3.97
2018-09-29T00:15:11.990Z,3.57
2018-09-29T00:17:40.927Z,3.53
2018-09-29T00:20:09.877Z,3.33
2018-09-29T00:22:38.796Z,3.40
2018-09-29T00:25:07.783Z,4.50
2018-09-29T00:27:36.767Z,3.90
2018-09-29T00:30:05.703Z,4.23
2018-09-29T00:32:34.658Z,4.20
2018-09-29T00:35:03.611Z,3.77
2018-09-29T00:37:32.651Z,3.60
2018-09-29T00:40:01.683Z,3.73
2018-09-29T00:42:30.602Z,3.67
2018-09-29T00:44:59.497Z,4.13
2018-09-29T00:47:28.459Z,4.07
2018-09-29T00:49:57.344Z,3.00
2018-09-29T00:52:27.857Z,3.43
2018-09-29T00:54:56.796Z,3.20
2018-09-29T00:57:25.748Z,3.00
2018-09-29T00:59:54.731Z,3.03
2018-09-29T01:02:23.679Z,2.80
2018-09-29T01:04:52.614Z,3.30
2018-09-29T01:07:21.474Z,3.73
2018-09-29T01:09:50.447Z,3.17
2018-09-29T01:12:19.447Z,3.73
2018-09-29T01:14:48.329Z,3.43
2018-09-29T01:17:17.240Z,3.53
2018-09-29T01:19:46.232Z,3.57
2018-09-29T01:22:15.157Z,3.67
2018-09-29T01:24:44.167Z,4.07
2018-09-29T01:27:13.095Z,3.50
2018-09-29T01:29:42.013Z,4.00
2018-09-29T01:32:11.053Z,3.47
2018-09-29T01:34:39.996Z,3.20
2018-09-29T01:37:08.893Z,2.80
2018-09-29T01:39:37.804Z,3.37
2018-09-29T01:42:06.798Z,3.43
2018-09-29T01:44:35.709Z,3.50
2018-09-29T01:47:04.656Z,3.53
2018-09-29T01:49:33.561Z,3.90
2018-09-29T01:52:02.462Z,3.93
2018-09-29T01:54:31.368Z,3.40
2018-09-29T01:57:00.530Z,3.50
2018-09-29T01:59:29.439Z,3.50
2018-09-29T02:01:58.372Z,4.20
2018-09-29T02:04:27.288Z,3.77
2018-09-29T02:06:56.209Z,3.63
2018-09-29T02:09:25.144Z,3.77
2018-09-29T02:11:54.040Z,3.60
2018-09-29T02:14:22.947Z,3.27
2018-09-29T02:16:51.837Z,3.53
2018-09-29T02:19:20.773Z,3.27
2018-09-29T02:21:49.939Z,3.80
2018-09-29T02:24:18.847Z,3.87
2018-09-29T02:26:47.757Z,3.57
2018-09-29T02:29:16.701Z,3.70
2018-09-29T02:31:45.592Z,3.93
2018-09-29T02:34:14.543Z,3.70
2018-09-29T02:36:43.598Z,3.83
2018-09-29T02:39:13.284Z,4.03
2018-09-29T02:41:42.172Z,3.73
2018-09-29T02:44:11.087Z,4.47
2018-09-29T02:46:40.024Z,3.53
2018-09-29T02:49:08.933Z,4.17
2018-09-29T02:51:37.828Z,4.03
2018-09-29T02:54:06.803Z,4.73
2018-09-29T02:56:35.720Z,4.30
2018-09-29T02:59:04.866Z,4.17
2018-09-29T03:01:33.741Z,4.30
2018-09-29T03:04:02.669Z,4.30
2018-09-29T03:06:31.551Z,4.50
2018-09-29T03:09:00.485Z,4.63
2018-09-29T03:11:29.416Z,4.97
2018-09-29T03:13:58.357Z,4.30
2018-09-29T03:16:27.245Z,4.53
2018-09-29T03:18:56.164Z,4.03
2018-09-29T03:21:25.059Z,3.90
2018-09-29T03:23:53.994Z,4.17
2018-09-29T03:26:22.898Z,4.20
2018-09-29T03:28:51.820Z,3.63
2018-09-29T03:31:21.054Z,4.60
2018-09-29T03:33:49.932Z,4.67
2018-09-29T03:36:18.854Z,3.97
2018-09-29T03:38:47.802Z,4.40
2018-09-29T03:41:16.900Z,3.90
2018-09-29T03:43:45.896Z,4.43
2018-09-29T03:46:14.940Z,4.57
2018-09-29T03:48:43.842Z,4.03
2018-09-29T03:51:12.840Z,3.70
2018-09-29T03:53:41.836Z,4.10
2018-09-29T03:56:10.754Z,4.40
2018-09-29T03:58:39.640Z,4.57
2018-09-29T04:01:08.606Z,4.57
2018-09-29T04:03:37.540Z,4.10
2018-09-29T04:06:06.506Z,5.07
2018-09-29T04:08:35.417Z,5.40
2018-09-29T04:11:04.477Z,4.70
2018-09-29T04:13:33.455Z,4.53
2018-09-29T04:16:02.396Z,4.43
2018-09-29T04:18:31.372Z,3.97
2018-09-29T04:21:00.528Z,4.50
2018-09-29T04:23:29.484Z,3.73
2018-09-29T04:25:58.441Z,3.90
2018-09-29T04:28:27.337Z,4.27
2018-09-29T04:30:56.337Z,4.53
2018-09-29T04:33:25.275Z,4.07
2018-09-29T04:35:54.195Z,3.93
2018-09-29T04:38:23.119Z,4.53
2018-09-29T04:40:52.080Z,4.37
2018-09-29T04:43:21.034Z,4.50
2018-09-29T04:45:49.961Z,4.30
2018-09-29T04:48:18.880Z,3.70
2018-09-29T04:50:47.841Z,4.17
2018-09-29T04:53:16.807Z,4.23
2018-09-29T04:55:46.827Z,4.57
2018-09-29T04:58:16.117Z,4.23
2018-09-29T05:00:45.045Z,4.40
2018-09-29T05:03:14.000Z,3.63
2018-09-29T05:05:42.964Z,4.10
2018-09-29T05:08:12.303Z,3.60
2018-09-29T05:10:41.240Z,3.57
2018-09-29T05:13:10.159Z,3.43
2018-09-29T05:15:39.072Z,2.73
2018-09-29T05:18:08.033Z,3.30
2018-09-29T05:20:37.048Z,3.13
2018-09-29T05:23:06.235Z,2.67
2018-09-29T05:25:35.203Z,3.23
2018-09-29T05:28:04.162Z,2.80
2018-09-29T05:30:33.044Z,3.30
2018-09-29T05:33:02.103Z,2.57
2018-09-29T05:35:31.029Z,2.70
2018-09-29T05:37:59.962Z,2.97
2018-09-29T05:40:28.966Z,2.57
2018-09-29T05:42:57.884Z,2.70
2018-09-29T05:45:26.806Z,2.20
2018-09-29T05:47:55.745Z,2.80
2018-09-29T05:50:24.679Z,2.27
2018-09-29T05:52:54.585Z,2.13
2018-09-29T05:55:23.480Z,2.40
2018-09-29T05:57:52.434Z,2.07
2018-09-29T06:00:21.400Z,1.43
2018-09-29T06:02:50.260Z,2.23
2018-09-29T06:05:19.254Z,1.90
2018-09-29T06:07:48.252Z,1.93
2018-09-29T06:10:17.221Z,1.87
2018-09-29T06:12:46.253Z,2.10
2018-09-29T06:15:15.201Z,3.03
2018-09-29T06:17:44.127Z,1.80
2018-09-29T06:20:13.090Z,1.90
2018-09-29T06:22:42.058Z,2.20
2018-09-29T06:25:10.981Z,1.73
2018-09-29T06:27:40.050Z,3.63
2018-09-29T06:30:08.969Z,1.90
2018-09-29T06:32:37.923Z,3.10
2018-09-29T06:35:06.905Z,2.30
2018-09-29T06:37:35.915Z,2.30
2018-09-29T06:40:05.049Z,2.73
2018-09-29T06:42:33.971Z,3.00
2018-09-29T06:45:02.987Z,2.53
2018-09-29T06:47:32.047Z,2.67
2018-09-29T06:50:01.107Z,2.10
2018-09-29T06:52:30.072Z,1.93
2018-09-29T06:54:58.997Z,2.40
2018-09-29T06:57:27.909Z,2.13
2018-09-29T06:59:56.997Z,1.83
2018-09-29T07:02:25.998Z,2.27
2018-09-29T07:04:54.979Z,2.50
2018-09-29T07:07:23.979Z,1.93
2018-09-29T07:09:52.898Z,2.20
2018-09-29T07:12:21.831Z,2.30
2018-09-29T07:14:50.845Z,2.50
2018-09-29T07:17:20.061Z,1.97
2018-09-29T07:19:48.975Z,1.70
2018-09-29T07:22:18.027Z,2.17
2018-09-29T07:24:47.059Z,1.60
2018-09-29T07:27:16.006Z,2.60
2018-09-29T07:29:44.970Z,2.63
2018-09-29T07:32:13.885Z,2.20
2018-09-29T07:34:42.966Z,2.20
2018-09-29T07:37:11.918Z,1.87
2018-09-29T07:39:40.935Z,1.50
2018-09-29T07:42:09.916Z,1.83
2018-09-29T07:44:38.799Z,2.00
2018-09-29T07:47:07.735Z,2.40
2018-09-29T07:49:36.817Z,2.13
2018-09-29T07:52:08.859Z,2.20
2018-09-29T07:54:37.903Z,2.50
2018-09-29T07:57:06.852Z,2.30
2018-09-29T07:59:35.836Z,2.67
2018-09-29T08:02:04.761Z,2.40
2018-09-29T08:04:33.724Z,1.80
2018-09-29T08:07:02.817Z,2.23
2018-09-29T08:09:31.781Z,2.13
2018-09-29T08:12:00.658Z,2.13
2018-09-29T08:14:29.565Z,2.30
2018-09-29T08:16:59.516Z,2.40
2018-09-29T08:19:29.511Z,2.27
2018-09-29T08:21:58.448Z,2.57
2018-09-29T08:24:27.400Z,2.20
2018-09-29T08:26:56.244Z,1.73
2018-09-29T08:29:25.213Z,2.53
2018-09-29T08:31:54.173Z,2.73
2018-09-29T08:34:23.168Z,2.00
2018-09-29T08:36:52.219Z,2.30
2018-09-29T08:39:21.192Z,1.80
2018-09-29T08:41:50.133Z,1.93
2018-09-29T08:44:19.035Z,2.27
2018-09-29T08:46:47.952Z,1.80
2018-09-29T08:49:16.884Z,1.70
2018-09-29T08:51:45.786Z,1.80
2018-09-29T08:54:14.809Z,1.90
2018-09-29T08:56:43.703Z,1.90
2018-09-29T08:59:12.719Z,2.07
2018-09-29T09:01:41.663Z,3.07
2018-09-29T09:04:10.590Z,1.70
2018-09-29T09:06:39.644Z,2.20
2018-09-29T09:09:09.973Z,2.03
2018-09-29T09:11:39.065Z,1.70
2018-09-29T09:14:08.269Z,2.07
2018-09-29T09:16:37.279Z,1.60
2018-09-29T09:19:06.357Z,1.73
2018-09-29T09:21:35.329Z,1.77
2018-09-29T09:24:04.275Z,1.80
2018-09-29T09:26:33.192Z,1.90
2018-09-29T09:29:02.171Z,2.10
2018-09-29T09:31:31.107Z,1.90
2018-09-29T09:34:00.012Z,1.63
2018-09-29T09:36:28.981Z,1.73
2018-09-29T09:38:57.865Z,2.30
2018-09-29T09:41:26.879Z,2.07
2018-09-29T09:43:55.873Z,2.40
2018-09-29T09:46:24.821Z,2.40
2018-09-29T09:48:53.741Z,2.23
2018-09-29T09:51:22.707Z,1.27
2018-09-29T09:53:51.644Z,1.90
2018-09-29T09:56:20.643Z,2.03
2018-09-29T09:58:49.559Z,1.80
2018-09-29T10:01:23.808Z,1.90
2018-09-29T10:03:52.805Z,1.80
2018-09-29T10:06:21.755Z,1.90
2018-09-29T10:08:50.769Z,1.60
2018-09-29T10:11:19.721Z,1.60
2018-09-29T10:13:51.639Z,1.40
2018-09-29T10:16:22.581Z,1.40
2018-09-29T10:18:51.504Z,1.87
2018-09-29T10:21:20.461Z,1.50
2018-09-29T10:23:49.459Z,1.50
2018-09-29T10:26:18.424Z,1.60
2018-09-29T10:28:47.363Z,1.10
2018-09-29T10:31:16.358Z,1.37
2018-09-29T10:33:45.533Z,2.00
2018-09-29T10:36:14.517Z,1.43
2018-09-29T10:38:43.517Z,1.57
2018-09-29T10:41:12.461Z,1.77
2018-09-29T10:43:41.367Z,1.70
2018-09-29T10:46:10.350Z,1.60
2018-09-29T10:48:39.295Z,1.67
2018-09-29T10:51:08.234Z,1.50
2018-09-29T10:53:37.377Z,1.63
2018-09-29T10:56:06.329Z,1.70
2018-09-29T10:58:35.279Z,1.60
2018-09-29T11:01:04.218Z,1.50
2018-09-29T11:03:33.205Z,1.70
2018-09-29T11:06:02.129Z,1.77
2018-09-29T11:08:31.061Z,1.60
2018-09-29T11:11:00.014Z,1.97
2018-09-29T11:13:28.999Z,1.40
2018-09-29T11:15:57.925Z,1.73
2018-09-29T11:18:34.765Z,1.83
2018-09-29T11:21:03.750Z,1.53
2018-09-29T11:23:32.696Z,1.43
2018-09-29T11:26:01.659Z,1.40
2018-09-29T11:28:30.577Z,1.30
2018-09-29T11:30:59.491Z,2.53
2018-09-29T11:33:28.429Z,1.80
2018-09-29T11:35:57.350Z,1.20
2018-09-29T11:38:26.317Z,1.20
2018-09-29T11:40:55.269Z,1.70
2018-09-29T11:43:24.183Z,1.23
2018-09-29T11:45:53.159Z,1.87
2018-09-29T11:48:27.219Z,1.67
2018-09-29T11:50:56.161Z,1.30
2018-09-29T11:53:25.061Z,1.57
2018-09-29T11:55:53.989Z,1.53
2018-09-29T11:58:22.963Z,1.70
2018-09-29T12:00:52.006Z,1.40
2018-09-29T12:03:20.947Z,1.53
2018-09-29T12:05:49.957Z,0.97
2018-09-29T12:08:18.832Z,1.43
2018-09-29T12:10:47.763Z,1.63
2018-09-29T12:13:16.669Z,0.97
2018-09-29T12:15:45.709Z,1.60
2018-09-29T12:18:14.608Z,1.40
2018-09-29T12:20:43.547Z,1.13
2018-09-29T12:23:12.452Z,0.90
2018-09-29T12:25:41.387Z,0.80
2018-09-29T12:28:18.504Z,0.90
2018-09-29T12:30:47.490Z,1.10
2018-09-29T12:33:18.766Z,1.57
2018-09-29T12:35:47.700Z,1.20
2018-09-29T12:38:16.670Z,1.40
2018-09-29T12:40:48.799Z,1.70
2018-09-29T12:43:17.711Z,1.53
2018-09-29T12:45:46.664Z,1.70
2018-09-29T12:48:15.647Z,1.43
2018-09-29T12:50:44.659Z,1.73
2018-09-29T12:53:13.578Z,1.63
2018-09-29T12:55:42.498Z,1.83
2018-09-29T12:58:11.439Z,1.70
2018-09-29T13:00:40.456Z,1.40
2018-09-29T13:03:09.359Z,1.17
2018-09-29T13:05:38.413Z,1.30
2018-09-29T13:08:07.328Z,1.00
2018-09-29T13:10:36.344Z,1.53
2018-09-29T13:13:05.408Z,1.67
2018-09-29T13:15:34.345Z,1.30
2018-09-29T13:18:03.273Z,1.83
2018-09-29T13:20:32.232Z,1.63
2018-09-29T13:23:01.240Z,1.80
2018-09-29T13:25:30.129Z,1.80
2018-09-29T13:27:59.035Z,1.60
2018-09-29T13:30:28.088Z,1.90
2018-09-29T13:33:06.869Z,1.80
2018-09-29T13:35:35.831Z,1.87
2018-09-29T13:38:04.844Z,2.10
2018-09-29T13:40:33.767Z,1.80
2018-09-29T13:43:02.681Z,2.20
2018-09-29T13:45:31.594Z,1.50
2018-09-29T13:48:00.529Z,2.13
2018-09-29T13:50:29.466Z,1.67
2018-09-29T13:52:58.411Z,1.93
2018-09-29T13:55:27.342Z,1.80
2018-09-29T13:58:00.593Z,1.83
2018-09-29T14:00:29.567Z,1.80
2018-09-29T14:02:58.539Z,2.37
2018-09-29T14:05:28.435Z,2.40
2018-09-29T14:07:57.356Z,1.97
2018-09-29T14:10:27.451Z,2.00
2018-09-29T14:12:56.389Z,2.03
2018-09-29T14:15:25.333Z,2.30
2018-09-29T14:17:54.314Z,2.17
2018-09-29T14:20:23.237Z,2.27
2018-09-29T14:22:52.147Z,1.80
2018-09-29T14:25:21.195Z,1.80
2018-09-29T14:27:51.185Z,1.70
2018-09-29T14:30:25.989Z,1.60
2018-09-29T14:32:54.885Z,1.77
2018-09-29T14:38:28.730Z,1.87
2018-09-29T14:40:57.649Z,2.00
2018-09-29T14:43:26.570Z,1.83
2018-09-29T14:45:55.548Z,2.33
2018-09-29T14:48:24.473Z,1.97
2018-09-29T14:50:53.414Z,2.07
2018-09-29T14:53:22.355Z,2.00
2018-09-29T14:55:51.380Z,2.30
2018-09-29T14:58:21.358Z,1.90
2018-09-29T15:00:50.289Z,1.60
2018-09-29T15:03:23.007Z,2.30
2018-09-29T15:05:52.012Z,1.87
2018-09-29T15:08:20.979Z,2.13
2018-09-29T15:10:52.089Z,1.80
2018-09-29T15:13:21.923Z,2.37
2018-09-29T15:15:51.227Z,2.27
2018-09-29T15:18:20.191Z,2.10
2018-09-29T15:20:49.594Z,1.87
2018-09-29T15:23:19.695Z,2.10
2018-09-29T15:25:48.731Z,1.90
2018-09-29T15:28:17.643Z,2.23
2018-09-29T15:30:46.572Z,2.00
2018-09-29T15:33:15.543Z,2.03
2018-09-29T15:35:44.501Z,2.30
2018-09-29T15:38:15.485Z,2.13
2018-09-29T15:40:44.401Z,1.87
2018-09-29T15:43:13.366Z,1.97
2018-09-29T15:45:42.390Z,2.20
2018-09-29T15:48:12.411Z,2.27
2018-09-29T15:50:41.335Z,2.53
2018-09-29T15:53:10.246Z,2.20
2018-09-29T15:55:39.249Z,2.10
2018-09-29T15:58:08.139Z,2.20
2018-09-29T16:00:38.097Z,2.30
2018-09-29T16:03:07.008Z,2.10
2018-09-29T16:05:35.929Z,2.23
2018-09-29T16:08:04.864Z,1.97
2018-09-29T16:10:33.842Z,2.00
2018-09-29T16:13:02.814Z,3.07
2018-09-29T16:15:31.704Z,1.90
2018-09-29T16:18:01.359Z,2.00
2018-09-29T16:20:30.392Z,1.53
2018-09-29T16:22:59.343Z,1.90
2018-09-29T16:25:28.220Z,3.07
2018-09-29T16:27:57.200Z,2.03
2018-09-29T16:30:26.139Z,2.63
2018-09-29T16:32:55.077Z,1.97
2018-09-29T16:35:23.979Z,2.00
2018-09-29T16:37:52.879Z,2.10
2018-09-29T16:40:21.888Z,2.43
2018-09-29T16:42:50.884Z,2.13
2018-09-29T16:45:19.786Z,2.10
2018-09-29T16:47:48.733Z,2.60
2018-09-29T16:50:17.713Z,3.03
2018-09-29T16:52:46.628Z,2.20
2018-09-29T16:55:15.627Z,2.50
2018-09-29T16:57:44.643Z,2.40
2018-09-29T17:00:13.578Z,2.23
2018-09-29T17:02:42.498Z,2.03
2018-09-29T17:05:11.531Z,2.30
2018-09-29T17:07:40.463Z,2.37
2018-09-29T17:10:09.575Z,2.80
2018-09-29T17:12:38.511Z,2.23
2018-09-29T17:15:07.532Z,2.20
2018-09-29T17:17:36.617Z,2.30
2018-09-29T17:20:11.963Z,2.03
2018-09-29T17:22:46.683Z,2.37
2018-09-29T17:25:15.653Z,2.30
2018-09-29T17:27:44.625Z,3.03
2018-09-29T17:30:13.543Z,2.40
2018-09-29T17:32:42.458Z,2.40
2018-09-29T17:35:11.492Z,2.73
2018-09-29T17:37:40.393Z,2.70
2018-09-29T17:40:09.345Z,3.43
2018-09-29T17:42:39.311Z,2.70
2018-09-29T17:45:09.165Z,2.63
2018-09-29T17:47:38.163Z,3.17
2018-09-29T17:50:08.393Z,3.53
2018-09-29T17:52:37.488Z,3.10
2018-09-29T17:55:06.425Z,3.10
2018-09-29T17:57:35.309Z,2.73
2018-09-29T18:00:04.401Z,3.57
2018-09-29T18:02:33.323Z,3.77
2018-09-29T18:05:02.285Z,3.43
2018-09-29T18:07:31.315Z,3.53
2018-09-29T18:10:00.229Z,3.63
2018-09-29T18:12:34.792Z,4.17
2018-09-29T18:15:04.065Z,3.67
2018-09-29T18:17:32.947Z,5.17
2018-09-29T18:20:01.846Z,4.83
2018-09-29T18:22:30.740Z,3.60
2018-09-29T18:24:59.620Z,3.60
2018-09-29T18:27:28.564Z,3.90
2018-09-29T18:32:38.971Z,3.97
2018-09-29T18:35:07.933Z,4.17
2018-09-29T18:37:37.013Z,4.27
2018-09-29T18:40:05.958Z,4.37
2018-09-29T18:42:34.944Z,4.97
2018-09-29T18:45:03.918Z,5.10
2018-09-29T18:47:32.923Z,5.00
2018-09-29T18:50:02.077Z,5.33
2018-09-29T18:52:30.984Z,4.03
2018-09-29T18:54:59.995Z,4.63
2018-09-29T18:57:31.796Z,4.50
2018-09-29T19:00:00.857Z,3.40
2018-09-29T19:02:31.433Z,4.40
2018-09-29T19:05:01.823Z,5.43
2018-09-29T19:07:30.923Z,4.60
2018-09-29T19:10:00.903Z,4.03
2018-09-29T19:12:29.845Z,4.30
2018-09-29T19:14:58.793Z,4.37
2018-09-29T19:17:28.019Z,4.57
2018-09-29T19:19:56.944Z,4.00
2018-09-29T19:22:26.020Z,3.90
2018-09-29T19:24:54.976Z,5.00
2018-09-29T19:27:24.067Z,4.50
2018-09-29T19:29:56.350Z,4.50
2018-09-29T19:32:25.319Z,5.00
2018-09-29T19:34:54.354Z,4.73
2018-09-29T19:37:23.249Z,4.77
2018-09-29T19:39:52.241Z,5.77
2018-09-29T19:42:21.217Z,5.27
2018-09-29T19:44:50.170Z,5.73
2018-09-29T19:47:19.226Z,5.77
2018-09-29T19:49:48.199Z,5.60
2018-09-29T19:52:17.209Z,5.43
2018-09-29T19:54:46.187Z,5.60
2018-09-29T19:57:15.209Z,6.47
2018-09-29T19:59:44.189Z,5.67
2018-09-29T20:02:13.126Z,6.90
2018-09-29T20:04:43.133Z,6.70
2018-09-29T20:07:14.627Z,7.00
2018-09-29T20:09:43.649Z,5.30
2018-09-29T20:12:13.659Z,5.17
2018-09-29T20:14:42.627Z,4.70
2018-09-29T20:17:14.423Z,4.60
2018-09-29T20:19:43.545Z,5.13
2018-09-29T20:22:34.957Z,5.63
2018-09-29T20:25:03.879Z,6.00
2018-09-29T20:27:32.791Z,4.93
2018-09-29T20:30:02.139Z,4.90
2018-09-29T20:32:31.198Z,5.03
2018-09-29T20:35:00.116Z,4.90
2018-09-29T20:37:29.040Z,4.73
2018-09-29T20:39:57.986Z,6.23
2018-09-29T20:42:26.977Z,5.50
2018-09-29T20:44:55.875Z,5.63
2018-09-29T20:47:24.887Z,5.37
2018-09-29T20:49:57.439Z,5.40
2018-09-29T20:52:26.367Z,5.40
2018-09-29T20:54:55.402Z,4.93
2018-09-29T20:57:27.583Z,6.10
2018-09-29T20:59:56.554Z,6.17
2018-09-29T21:02:42.916Z,6.00
2018-09-29T21:05:12.192Z,5.57
2018-09-29T21:07:41.148Z,5.70
2018-09-29T21:10:10.224Z,5.80
2018-09-29T21:12:39.193Z,5.37
2018-09-29T21:15:08.188Z,5.90
2018-09-29T21:17:40.389Z,6.30
2018-09-29T21:20:09.356Z,6.77
2018-09-29T21:22:38.383Z,6.80
2018-09-29T21:25:07.283Z,7.57
2018-09-29T21:27:36.369Z,5.73
2018-09-29T21:30:05.301Z,6.03
2018-09-29T21:32:34.333Z,6.70
2018-09-29T21:35:03.344Z,6.30
2018-09-29T21:37:32.252Z,7.10
2018-09-29T21:40:01.219Z,6.43
2018-09-29T21:42:30.255Z,7.43
2018-09-29T21:44:59.141Z,6.90
2018-09-29T21:47:28.059Z,7.47
2018-09-29T21:49:57.000Z,6.67
2018-09-29T21:52:26.207Z,7.43
2018-09-29T21:54:54.981Z,7.53
2018-09-29T21:57:23.938Z,6.90
2018-09-29T21:59:52.847Z,7.00
2018-09-29T22:02:21.891Z,7.60
2018-09-29T22:04:50.829Z,8.10
2018-09-29T22:07:19.882Z,7.77
2018-09-29T22:09:48.867Z,8.83
2018-09-29T22:12:17.895Z,7.87
2018-09-29T22:14:46.856Z,7.37
2018-09-29T22:17:16.971Z,8.93
2018-09-29T22:19:45.938Z,6.90
2018-09-29T22:22:14.866Z,7.60
2018-09-29T22:24:43.915Z,8.00
2018-09-29T22:27:12.971Z,7.87
2018-09-29T22:29:42.017Z,7.87
2018-09-29T22:32:10.993Z,7.30
2018-09-29T22:34:40.097Z,7.47
2018-09-29T22:37:09.112Z,7.83
2018-09-29T22:39:38.011Z,8.20
2018-09-29T22:42:07.066Z,7.67
2018-09-29T22:44:36.329Z,7.87
2018-09-29T22:47:05.441Z,7.80
2018-09-29T22:49:34.413Z,9.23
2018-09-29T22:52:04.426Z,7.60
2018-09-29T22:54:33.359Z,8.47
2018-09-29T22:57:02.304Z,9.60
2018-09-29T22:59:34.216Z,9.17
2018-09-29T23:02:03.139Z,9.30
2018-09-29T23:04:32.088Z,8.30
2018-09-29T23:07:01.040Z,8.20
2018-09-29T23:09:30.029Z,7.57
2018-09-29T23:11:58.992Z,6.80
2018-09-29T23:14:28.054Z,7.17
2018-09-29T23:16:57.028Z,6.80
2018-09-29T23:19:25.996Z,5.87
2018-09-29T23:21:54.877Z,5.27
2018-09-29T23:24:23.832Z,4.53
2018-09-29T23:26:52.746Z,4.40
2018-09-29T23:29:21.628Z,4.17
2018-09-29T23:31:50.548Z,3.07
2018-09-29T23:34:19.485Z,3.90
2018-09-29T23:36:50.560Z,3.80
2018-09-29T23:39:19.508Z,3.60
2018-09-29T23:41:48.444Z,3.37
2018-09-29T23:44:17.372Z,4.13
2018-09-29T23:46:46.292Z,3.20
2018-09-29T23:49:15.297Z,4.23
2018-09-29T23:51:44.176Z,4.10
2018-09-29T23:54:13.114Z,5.07
2018-09-29T23:56:42.044Z,4.33
2018-09-29T23:59:11.014Z,4.90
